createdAt,value
2022-08-09T00:00:46.290Z,19.68
2022-08-09T00:01:54.942Z,19.84
2022-08-09T00:02:49.386Z,19.81
2022-08-09T00:04:00.729Z,19.91
2022-08-09T00:05:03.153Z,19.78
2022-08-09T00:06:19.202Z,19.73
2022-08-09T00:06:46.443Z,19.61
2022-08-09T00:07:45.469Z,19.57
2022-08-09T00:08:45.373Z,19.47
2022-08-09T00:09:45.363Z,19.39
2022-08-09T00:10:45.355Z,19.35
2022-08-09T00:12:03.919Z,19.27
2022-08-09T00:12:46.366Z,19.25
2022-08-09T00:13:45.318Z,19.21
2022-08-09T00:14:45.436Z,19.12
2022-08-09T00:15:59.847Z,19.06
2022-08-09T00:16:47.292Z,18.92
2022-08-09T00:18:06.091Z,18.99
2022-08-09T00:18:46.299Z,18.94
2022-08-09T00:19:48.055Z,18.94
2022-08-09T00:20:49.785Z,19.12
2022-08-09T00:21:56.584Z,19.30
2022-08-09T00:22:47.147Z,19.32
2022-08-09T00:23:55.408Z,19.32
2022-08-09T00:24:46.241Z,19.39
2022-08-09T00:25:45.189Z,19.47
2022-08-09T00:26:46.228Z,19.58
2022-08-09T00:27:48.044Z,19.62
2022-08-09T00:28:52.644Z,19.55
2022-08-09T00:30:23.587Z,19.46
2022-08-09T00:30:46.168Z,19.49
2022-08-09T00:31:57.766Z,19.49
2022-08-09T00:32:46.633Z,19.50
2022-08-09T00:33:51.022Z,19.53
2022-08-09T00:34:46.357Z,19.46
2022-08-09T00:35:46.119Z,19.38
2022-08-09T00:36:45.069Z,19.27
2022-08-09T00:37:45.059Z,19.13
2022-08-09T00:38:45.046Z,19.05
2022-08-09T00:40:09.676Z,18.95
2022-08-09T00:40:52.386Z,18.82
2022-08-09T00:44:10.099Z,18.76
2022-08-09T00:44:14.249Z,18.73
2022-08-09T00:44:15.997Z,18.80
2022-08-09T00:44:47.037Z,18.72
2022-08-09T00:45:50.608Z,18.78
2022-08-09T00:46:55.869Z,18.81
2022-08-09T00:47:45.985Z,18.80
2022-08-09T00:48:47.522Z,18.73
2022-08-09T00:49:52.578Z,18.78
2022-08-09T00:50:45.951Z,18.76
2022-08-09T00:51:56.057Z,18.80
2022-08-09T00:52:51.946Z,18.82
2022-08-09T00:53:44.883Z,18.87
2022-08-09T00:54:45.067Z,18.78
2022-08-09T00:56:05.099Z,18.75
2022-08-09T00:56:45.891Z,18.65
2022-08-09T00:57:44.845Z,18.57
2022-08-09T00:58:48.946Z,18.51
2022-08-09T00:59:47.085Z,18.41
2022-08-09T01:00:45.897Z,18.33
2022-08-09T01:01:45.398Z,18.28
2022-08-09T01:02:44.790Z,18.17
2022-08-09T01:03:46.244Z,18.10
2022-08-09T01:04:44.764Z,17.92
2022-08-09T01:05:53.150Z,17.80
2022-08-09T01:06:53.729Z,17.67
2022-08-09T01:08:00.087Z,17.58
2022-08-09T01:08:49.762Z,17.46
2022-08-09T01:09:44.714Z,17.40
2022-08-09T01:10:45.185Z,17.30
2022-08-09T01:11:53.275Z,17.34
2022-08-09T01:12:44.685Z,17.37
2022-08-09T01:14:19.407Z,17.46
2022-08-09T01:15:19.402Z,17.40
2022-08-09T01:16:19.391Z,17.36
2022-08-09T01:17:19.372Z,17.26
2022-08-09T01:18:29.744Z,17.18
2022-08-09T01:19:42.374Z,17.07
2022-08-09T01:20:20.378Z,17.00
2022-08-09T01:21:19.331Z,16.98
2022-08-09T01:22:19.317Z,16.98
2022-08-09T01:24:02.106Z,16.94
2022-08-09T01:24:20.535Z,16.93
2022-08-09T01:25:19.400Z,16.85
2022-08-09T01:26:19.277Z,16.77
2022-08-09T01:27:19.265Z,16.74
2022-08-09T01:28:19.256Z,16.66
2022-08-09T01:29:19.244Z,16.57
2022-08-09T01:30:28.749Z,16.59
2022-08-09T01:31:23.402Z,16.57
2022-08-09T01:32:32.647Z,16.55
2022-08-09T01:33:20.439Z,16.45
2022-08-09T01:34:19.187Z,16.37
2022-08-09T01:35:38.029Z,16.30
2022-08-09T01:36:20.207Z,16.24
2022-08-09T01:37:21.721Z,16.26
2022-08-09T01:38:20.188Z,16.23
2022-08-09T01:39:19.211Z,16.20
2022-08-09T01:40:23.236Z,16.12
2022-08-09T01:41:25.838Z,16.07
2022-08-09T01:42:22.194Z,16.00
2022-08-09T01:43:25.105Z,15.96
2022-08-09T01:44:19.083Z,15.93
2022-08-09T01:45:19.070Z,15.89
2022-08-09T01:46:24.990Z,15.82
2022-08-09T01:47:20.087Z,15.76
2022-08-09T01:48:19.040Z,15.72
2022-08-09T01:49:19.034Z,15.65
2022-08-09T01:50:19.023Z,15.65
2022-08-09T01:51:22.787Z,15.60
2022-08-09T01:52:25.071Z,15.60
2022-08-09T01:53:21.586Z,15.56
2022-08-09T01:54:18.976Z,15.54
2022-08-09T01:55:18.969Z,15.50
2022-08-09T01:56:18.954Z,15.53
2022-08-09T01:57:18.946Z,15.57
2022-08-09T01:58:24.142Z,15.82
2022-08-09T01:59:18.920Z,15.89
2022-08-09T02:00:35.090Z,15.97
2022-08-09T02:01:19.990Z,16.19
2022-08-09T02:02:19.920Z,16.34
2022-08-09T02:03:18.875Z,16.38
2022-08-09T02:04:18.867Z,16.38
2022-08-09T02:05:18.857Z,16.38
2022-08-09T02:06:18.852Z,16.40
2022-08-09T02:08:39.147Z,16.66
2022-08-09T02:08:41.212Z,16.40
2022-08-09T02:09:19.855Z,16.69
2022-08-09T02:10:18.804Z,16.98
2022-08-09T02:11:19.855Z,17.08
2022-08-09T02:12:27.089Z,17.14
2022-08-09T02:13:19.809Z,17.21
2022-08-09T02:14:25.512Z,17.22
2022-08-09T02:15:19.794Z,17.19
2022-08-09T02:16:33.637Z,17.19
2022-08-09T02:17:59.338Z,17.19
2022-08-09T02:18:18.722Z,17.34
2022-08-09T02:19:18.705Z,17.54
2022-08-09T02:20:26.753Z,17.58
2022-08-09T02:21:22.057Z,17.59
2022-08-09T02:22:19.102Z,17.58
2022-08-09T02:23:19.904Z,17.55
2022-08-09T02:24:26.484Z,17.61
2022-08-09T02:25:19.677Z,17.63
2022-08-09T02:26:27.024Z,17.76
2022-08-09T02:27:18.766Z,17.77
2022-08-09T02:28:18.613Z,17.88
2022-08-09T02:29:18.603Z,17.86
2022-08-09T02:30:18.589Z,17.81
2022-08-09T02:31:18.607Z,17.80
2022-08-09T02:32:18.573Z,17.81
2022-08-09T02:33:18.575Z,17.88
2022-08-09T02:34:40.119Z,18.01
2022-08-09T02:35:23.092Z,17.98
2022-08-09T02:36:19.564Z,17.99
2022-08-09T02:37:18.519Z,17.96
2022-08-09T02:38:27.886Z,17.86
2022-08-09T02:39:33.425Z,17.88
2022-08-09T02:40:26.820Z,17.86
2022-08-09T02:41:19.633Z,17.85
2022-08-09T02:42:18.461Z,17.91
2022-08-09T02:43:18.450Z,17.89
2022-08-09T02:44:29.046Z,17.91
2022-08-09T02:45:20.430Z,17.99
2022-08-09T02:46:19.456Z,17.95
2022-08-09T02:47:18.411Z,17.89
2022-08-09T02:48:29.767Z,17.88
2022-08-09T02:49:19.422Z,17.81
2022-08-09T02:50:19.411Z,17.77
2022-08-09T02:51:18.368Z,17.69
2022-08-09T02:52:18.357Z,17.65
2022-08-09T02:53:26.226Z,17.59
2022-08-09T02:54:20.332Z,17.49
2022-08-09T02:55:21.166Z,17.38
2022-08-09T02:56:18.310Z,17.31
2022-08-09T02:57:23.582Z,17.28
2022-08-09T02:58:37.009Z,17.19
2022-08-09T02:59:26.431Z,17.23
2022-08-09T03:00:24.985Z,17.16
2022-08-09T03:01:21.655Z,17.06
2022-08-09T03:02:19.393Z,17.01
2022-08-09T03:03:21.448Z,17.01
2022-08-09T03:04:19.604Z,16.98
2022-08-09T03:05:18.214Z,16.96
2022-08-09T03:06:18.202Z,16.93
2022-08-09T03:07:18.190Z,16.85
2022-08-09T03:08:24.187Z,16.80
2022-08-09T03:09:18.169Z,16.75
2022-08-09T03:10:18.164Z,16.67
2022-08-09T03:12:04.932Z,16.62
2022-08-09T03:12:19.171Z,16.67
2022-08-09T03:13:18.126Z,16.60
2022-08-09T03:14:28.163Z,16.59
2022-08-09T03:15:18.312Z,16.51
2022-08-09T03:16:18.099Z,16.42
2022-08-09T03:17:20.388Z,16.41
2022-08-09T03:18:19.174Z,16.33
2022-08-09T03:19:59.482Z,16.27
2022-08-09T03:20:19.088Z,16.19
2022-08-09T03:21:18.045Z,16.09
2022-08-09T03:22:25.057Z,15.94
2022-08-09T03:23:24.312Z,15.84
2022-08-09T03:24:25.204Z,15.78
2022-08-09T03:25:26.955Z,15.74
2022-08-09T03:26:19.022Z,15.67
2022-08-09T03:27:21.567Z,15.60
2022-08-09T03:28:17.966Z,15.50
2022-08-09T03:29:22.921Z,15.38
2022-08-09T03:30:29.759Z,15.30
2022-08-09T03:31:22.670Z,15.24
2022-08-09T03:32:17.926Z,15.12
2022-08-09T03:33:19.439Z,15.02
2022-08-09T03:34:17.906Z,14.94
2022-08-09T03:35:24.828Z,14.87
2022-08-09T03:36:18.921Z,14.79
2022-08-09T03:37:56.465Z,14.69
2022-08-09T03:38:30.269Z,14.62
2022-08-09T03:39:28.363Z,14.55
2022-08-09T03:40:18.835Z,14.46
2022-08-09T03:41:18.488Z,14.33
2022-08-09T03:42:19.310Z,14.27
2022-08-09T03:43:18.804Z,14.18
2022-08-09T03:44:17.743Z,14.12
2022-08-09T03:45:17.785Z,14.07
2022-08-09T03:46:19.974Z,14.06
2022-08-09T03:47:17.727Z,14.10
2022-08-09T03:48:18.758Z,14.15
2022-08-09T03:49:18.940Z,14.10
2022-08-09T03:50:27.695Z,14.12
2022-08-09T03:51:55.622Z,14.06
2022-08-09T03:52:18.699Z,14.02
2022-08-09T03:53:17.645Z,13.98
2022-08-09T03:54:17.642Z,13.95
2022-08-09T03:55:17.825Z,13.90
2022-08-09T03:56:17.618Z,13.88
2022-08-09T03:57:20.638Z,13.87
2022-08-09T03:58:21.064Z,13.87
2022-08-09T03:59:21.001Z,13.88
2022-08-09T04:00:18.620Z,13.86
2022-08-09T04:01:17.598Z,13.90
2022-08-09T04:02:19.693Z,13.91
2022-08-09T04:03:25.009Z,13.94
2022-08-09T04:04:18.769Z,13.87
2022-08-09T04:05:27.945Z,13.83
2022-08-09T04:06:18.540Z,13.80
2022-08-09T04:07:17.493Z,13.74
2022-08-09T04:08:17.496Z,13.69
2022-08-09T04:09:44.556Z,13.66
2022-08-09T04:10:18.251Z,13.63
2022-08-09T04:11:17.451Z,13.62
2022-08-09T04:12:30.669Z,13.61
2022-08-09T04:13:18.661Z,13.62
2022-08-09T04:14:52.819Z,13.56
2022-08-09T04:15:52.528Z,13.51
2022-08-09T04:16:21.264Z,13.53
2022-08-09T04:17:17.385Z,13.54
2022-08-09T04:18:19.264Z,13.76
2022-08-09T04:19:30.321Z,13.86
2022-08-09T04:20:17.354Z,13.91
2022-08-09T04:21:17.359Z,14.12
2022-08-09T04:22:17.336Z,14.35
2022-08-09T04:23:17.917Z,14.43
2022-08-09T04:24:18.381Z,14.52
2022-08-09T04:25:17.300Z,14.57
2022-08-09T04:26:17.285Z,14.51
2022-08-09T04:27:23.289Z,14.54
2022-08-09T04:28:17.270Z,14.52
2022-08-09T04:29:19.267Z,14.57
2022-08-09T04:30:17.245Z,14.58
2022-08-09T04:31:17.235Z,14.58
2022-08-09T04:32:31.460Z,14.52
2022-08-09T04:33:19.217Z,14.47
2022-08-09T04:34:30.571Z,14.54
2022-08-09T04:35:18.229Z,14.54
2022-08-09T04:36:17.180Z,14.70
2022-08-09T04:37:17.173Z,14.87
2022-08-09T04:38:17.160Z,15.06
2022-08-09T04:39:17.440Z,15.20
2022-08-09T04:40:19.375Z,15.28
2022-08-09T04:41:18.161Z,15.31
2022-08-09T04:42:17.122Z,15.31
2022-08-09T04:43:17.105Z,15.26
2022-08-09T04:44:17.095Z,15.27
2022-08-09T04:45:23.093Z,15.34
2022-08-09T04:46:36.554Z,15.42
2022-08-09T04:47:18.107Z,15.50
2022-08-09T04:48:17.052Z,15.53
2022-08-09T04:49:17.040Z,15.51
2022-08-09T04:50:17.034Z,15.53
2022-08-09T04:51:17.019Z,15.54
2022-08-09T04:52:26.211Z,15.54
2022-08-09T04:53:17.006Z,15.54
2022-08-09T04:54:52.231Z,15.64
2022-08-09T04:55:57.897Z,15.62
2022-08-09T04:56:53.650Z,15.67
2022-08-09T04:57:54.139Z,15.65
2022-08-09T04:58:51.834Z,15.76
2022-08-09T04:59:51.619Z,15.90
2022-08-09T05:00:51.605Z,16.00
2022-08-09T05:01:51.599Z,16.15
2022-08-09T05:02:52.568Z,16.23
2022-08-09T05:03:56.792Z,16.48
2022-08-09T05:04:55.046Z,16.63
2022-08-09T05:06:04.370Z,16.69
2022-08-09T05:06:52.585Z,16.72
2022-08-09T05:07:51.534Z,16.72
2022-08-09T05:08:51.525Z,16.74
2022-08-09T05:09:51.522Z,16.70
2022-08-09T05:10:51.502Z,16.72
2022-08-09T05:11:51.506Z,16.72
2022-08-09T05:12:51.483Z,16.77
2022-08-09T05:13:51.523Z,16.87
2022-08-09T05:14:51.460Z,16.97
2022-08-09T05:15:56.884Z,17.00
2022-08-09T05:16:59.392Z,17.06
2022-08-09T05:18:57.408Z,17.14
2022-08-09T05:18:58.168Z,17.16
2022-08-09T05:19:56.996Z,17.23
2022-08-09T05:20:51.403Z,17.31
2022-08-09T05:21:55.293Z,17.41
2022-08-09T05:23:55.221Z,17.52
2022-08-09T05:23:57.874Z,17.62
2022-08-09T05:24:52.403Z,17.71
2022-08-09T05:25:51.389Z,17.77
2022-08-09T05:26:51.334Z,17.78
2022-08-09T05:27:51.329Z,17.83
2022-08-09T05:28:52.132Z,17.85
2022-08-09T05:29:51.310Z,17.86
2022-08-09T05:30:51.582Z,17.91
2022-08-09T05:31:56.745Z,17.99
2022-08-09T05:32:53.381Z,17.99
2022-08-09T05:33:51.264Z,18.06
2022-08-09T05:34:51.257Z,18.11
2022-08-09T05:35:51.263Z,18.22
2022-08-09T05:36:57.243Z,18.37
2022-08-09T05:37:51.234Z,18.44
2022-08-09T05:38:51.214Z,18.57
2022-08-09T05:39:51.265Z,18.62
2022-08-09T05:40:51.188Z,18.70
2022-08-09T05:41:51.179Z,18.81
2022-08-09T05:42:51.169Z,18.87
2022-08-09T05:43:51.160Z,19.03
2022-08-09T05:44:51.735Z,19.18
2022-08-09T05:45:56.781Z,19.49
2022-08-09T05:46:52.371Z,20.08
2022-08-09T05:47:52.345Z,20.78
2022-08-09T05:48:58.841Z,21.64
2022-08-09T05:50:31.069Z,22.34
2022-08-09T05:51:16.675Z,23.17
2022-08-09T05:51:52.117Z,23.89
2022-08-09T05:52:53.548Z,24.42
2022-08-09T05:53:57.046Z,24.89
2022-08-09T05:54:52.078Z,25.37
2022-08-09T05:55:51.028Z,25.41
2022-08-09T05:56:54.814Z,25.75
2022-08-09T05:57:56.698Z,26.20
2022-08-09T05:58:53.779Z,26.75
2022-08-09T05:59:52.031Z,27.03
2022-08-09T06:00:50.981Z,26.95
2022-08-09T06:01:50.981Z,26.53
2022-08-09T06:02:54.317Z,26.43
2022-08-09T06:03:58.081Z,25.60
2022-08-09T06:04:57.983Z,25.55
2022-08-09T06:06:04.724Z,25.87
2022-08-09T06:06:51.954Z,26.24
2022-08-09T06:08:05.189Z,26.31
2022-08-09T06:08:52.800Z,26.12
2022-08-09T06:10:01.338Z,25.62
2022-08-09T06:10:50.879Z,25.54
2022-08-09T06:11:57.809Z,26.27
2022-08-09T06:12:59.329Z,27.02
2022-08-09T06:13:52.091Z,27.10
2022-08-09T06:14:50.837Z,27.18
2022-08-09T06:15:57.035Z,27.50
2022-08-09T06:16:52.429Z,27.37
2022-08-09T06:17:50.802Z,27.76
2022-08-09T06:18:50.793Z,28.01
2022-08-09T06:19:50.789Z,28.52
2022-08-09T06:20:54.906Z,28.74
2022-08-09T06:21:58.777Z,29.26
2022-08-09T06:22:51.791Z,28.98
2022-08-09T06:23:55.816Z,28.68
2022-08-09T06:24:50.730Z,29.07
2022-08-09T06:25:50.727Z,29.22
2022-08-09T06:26:50.708Z,29.05
2022-08-09T06:27:51.724Z,29.29
2022-08-09T06:28:59.565Z,29.35
2022-08-09T06:30:04.650Z,29.17
2022-08-09T06:30:51.710Z,29.26
2022-08-09T06:32:08.407Z,29.03
2022-08-09T06:32:59.789Z,28.95
2022-08-09T06:33:53.252Z,29.32
2022-08-09T06:34:53.111Z,29.66
2022-08-09T06:35:56.796Z,29.74
2022-08-09T06:36:57.359Z,29.85
2022-08-09T06:38:05.367Z,29.83
2022-08-09T06:38:50.582Z,30.39
2022-08-09T06:40:00.659Z,30.54
2022-08-09T06:40:55.041Z,30.63
2022-08-09T06:42:08.729Z,30.87
2022-08-09T06:42:51.581Z,31.03
2022-08-09T06:43:50.528Z,30.96
2022-08-09T06:44:54.062Z,30.98
2022-08-09T06:46:04.970Z,31.06
2022-08-09T06:46:56.715Z,31.23
2022-08-09T06:48:00.538Z,31.46
2022-08-09T06:48:51.517Z,31.94
2022-08-09T06:50:13.525Z,32.07
2022-08-09T06:50:51.511Z,32.43
2022-08-09T06:51:50.452Z,32.55
2022-08-09T06:52:50.441Z,32.89
2022-08-09T06:53:50.436Z,32.96
2022-08-09T06:54:50.415Z,33.03
2022-08-09T06:55:50.425Z,33.01
2022-08-09T06:56:56.406Z,32.69
2022-08-09T06:58:03.469Z,32.12
2022-08-09T07:00:53.065Z,31.63
2022-08-09T07:00:57.038Z,31.62
2022-08-09T07:00:58.469Z,31.66
2022-08-09T07:01:54.824Z,31.46
2022-08-09T07:02:51.430Z,31.73
2022-08-09T07:03:52.562Z,31.95
2022-08-09T07:04:50.324Z,31.31
2022-08-09T07:05:58.199Z,31.56
2022-08-09T07:06:53.084Z,31.70
2022-08-09T07:08:00.986Z,31.29
2022-08-09T07:08:51.310Z,31.47
2022-08-09T07:09:55.597Z,31.85
2022-08-09T07:10:51.299Z,31.70
2022-08-09T07:11:52.297Z,31.84
2022-08-09T07:12:57.614Z,32.09
2022-08-09T07:14:04.846Z,32.56
2022-08-09T07:14:53.409Z,32.89
2022-08-09T07:15:53.888Z,32.69
2022-08-09T07:16:57.458Z,32.34
2022-08-09T07:17:56.015Z,32.40
2022-08-09T07:18:56.183Z,32.07
2022-08-09T07:19:55.177Z,32.34
2022-08-09T07:20:50.165Z,32.77
2022-08-09T07:21:57.223Z,33.33
2022-08-09T07:22:53.188Z,33.22
2022-08-09T07:23:56.680Z,33.41
2022-08-09T07:24:57.164Z,32.96
2022-08-09T07:26:02.563Z,32.43
2022-08-09T07:26:50.915Z,32.96
2022-08-09T07:27:53.180Z,33.43
2022-08-09T07:29:09.112Z,33.62
2022-08-09T07:29:58.309Z,32.97
2022-08-09T07:30:56.076Z,33.25
2022-08-09T07:31:50.043Z,33.60
2022-08-09T07:32:51.492Z,33.11
2022-08-09T07:33:52.467Z,32.50
2022-08-09T07:34:56.017Z,33.18
2022-08-09T07:35:53.557Z,34.00
2022-08-09T07:36:49.995Z,34.86
2022-08-09T07:37:49.982Z,35.20
2022-08-09T07:38:56.789Z,35.13
2022-08-09T07:39:51.041Z,34.64
2022-08-09T07:41:00.962Z,34.66
2022-08-09T07:41:50.977Z,34.66
2022-08-09T07:42:50.129Z,35.08
2022-08-09T07:43:55.946Z,35.02
2022-08-09T07:44:55.384Z,35.05
2022-08-09T07:45:50.148Z,34.76
2022-08-09T07:46:50.094Z,34.93
2022-08-09T07:48:01.623Z,35.10
2022-08-09T07:48:52.830Z,35.24
2022-08-09T07:50:04.847Z,35.59
2022-08-09T07:50:53.152Z,36.19
2022-08-09T07:52:05.906Z,35.68
2022-08-09T07:52:50.863Z,35.59
2022-08-09T07:54:05.190Z,35.22
2022-08-09T07:55:28.625Z,35.59
2022-08-09T07:56:27.354Z,34.68
2022-08-09T07:57:33.978Z,34.28
2022-08-09T07:58:27.495Z,34.68
2022-08-09T07:59:45.771Z,35.36
2022-08-09T08:00:35.473Z,36.18
2022-08-09T08:01:33.938Z,35.41
2022-08-09T08:02:27.587Z,35.66
2022-08-09T08:03:26.779Z,35.06
2022-08-09T08:04:32.940Z,35.43
2022-08-09T08:05:26.394Z,35.80
2022-08-09T08:06:31.820Z,36.30
2022-08-09T08:08:43.622Z,35.41
2022-08-09T08:09:02.524Z,34.98
2022-08-09T08:09:35.479Z,35.28
2022-08-09T08:10:28.345Z,35.22
2022-08-09T08:12:09.868Z,34.34
2022-08-09T08:12:29.193Z,33.31
2022-08-09T08:13:26.310Z,33.50
2022-08-09T08:14:27.335Z,33.07
2022-08-09T08:15:26.431Z,34.27
2022-08-09T08:16:29.809Z,34.93
2022-08-09T08:17:52.023Z,35.60
2022-08-09T08:18:27.302Z,35.94
2022-08-09T08:19:30.674Z,36.64
2022-08-09T08:20:33.270Z,37.03
2022-08-09T08:21:26.572Z,37.24
2022-08-09T08:22:28.609Z,37.84
2022-08-09T08:23:27.372Z,37.81
2022-08-09T08:24:27.094Z,38.37
2022-08-09T08:25:26.192Z,38.30
2022-08-09T08:26:42.023Z,37.74
2022-08-09T08:27:27.217Z,36.99
2022-08-09T08:28:34.986Z,37.39
2022-08-09T08:29:27.825Z,37.68
2022-08-09T08:30:26.144Z,38.06
2022-08-09T08:31:39.392Z,38.54
2022-08-09T08:32:29.370Z,38.31
2022-08-09T08:33:49.734Z,38.95
2022-08-09T08:34:27.342Z,39.28
2022-08-09T08:35:36.983Z,39.09
2022-08-09T08:36:28.677Z,39.50
2022-08-09T08:37:26.074Z,39.79
2022-08-09T08:38:32.085Z,38.10
2022-08-09T08:39:26.123Z,38.53
2022-08-09T08:40:26.048Z,38.32
2022-08-09T08:41:30.806Z,38.47
2022-08-09T08:42:31.984Z,39.02
2022-08-09T08:43:26.580Z,39.17
2022-08-09T08:44:28.713Z,39.51
2022-08-09T08:45:37.459Z,39.50
2022-08-09T08:46:33.035Z,39.34
2022-08-09T08:47:27.603Z,39.40
2022-08-09T08:48:29.207Z,38.30
2022-08-09T08:49:33.398Z,37.73
2022-08-09T08:50:34.159Z,38.31
2022-08-09T08:51:25.949Z,38.56
2022-08-09T08:52:57.839Z,38.28
2022-08-09T08:53:32.099Z,37.77
2022-08-09T08:54:30.150Z,37.93
2022-08-09T08:55:25.906Z,37.39
2022-08-09T08:56:28.498Z,37.03
2022-08-09T08:57:26.940Z,36.67
2022-08-09T08:58:27.259Z,37.32
2022-08-09T08:59:46.664Z,37.68
2022-08-09T09:00:27.526Z,37.68
2022-08-09T09:01:44.799Z,38.40
2022-08-09T09:02:31.901Z,39.24
2022-08-09T09:03:37.280Z,37.75
2022-08-09T09:04:27.602Z,36.88
2022-08-09T09:05:57.790Z,37.46
2022-08-09T09:06:27.042Z,37.95
2022-08-09T09:07:25.794Z,38.79
2022-08-09T09:08:31.010Z,39.20
2022-08-09T09:09:50.235Z,39.50
2022-08-09T09:10:26.894Z,40.04
2022-08-09T09:11:25.963Z,40.23
2022-08-09T09:12:25.957Z,40.54
2022-08-09T09:13:41.952Z,40.52
2022-08-09T09:14:26.764Z,39.94
2022-08-09T09:16:08.643Z,39.82
2022-08-09T09:17:10.580Z,39.70
2022-08-09T09:18:08.394Z,39.56
2022-08-09T09:19:37.113Z,39.89
2022-08-09T09:20:09.613Z,39.46
2022-08-09T09:21:08.365Z,39.69
2022-08-09T09:22:11.778Z,39.08
2022-08-09T09:23:08.553Z,39.20
2022-08-09T09:24:10.343Z,38.44
2022-08-09T09:26:03.525Z,39.15
2022-08-09T09:26:12.339Z,39.31
2022-08-09T09:27:22.180Z,39.97
2022-08-09T09:28:10.665Z,40.53
2022-08-09T09:29:17.215Z,41.28
2022-08-09T09:30:40.097Z,41.52
2022-08-09T09:31:09.540Z,40.61
2022-08-09T09:32:15.539Z,39.06
2022-08-09T09:33:16.750Z,39.10
2022-08-09T09:34:18.479Z,38.83
2022-08-09T09:35:15.807Z,38.38
2022-08-09T09:36:20.246Z,37.27
2022-08-09T09:37:08.437Z,37.49
2022-08-09T09:38:08.221Z,38.57
2022-08-09T09:39:09.936Z,38.60
2022-08-09T09:40:08.496Z,37.84
2022-08-09T09:41:10.010Z,37.88
2022-08-09T09:42:14.201Z,38.68
2022-08-09T09:43:08.183Z,39.94
2022-08-09T09:44:12.681Z,39.81
2022-08-09T09:45:08.600Z,39.61
2022-08-09T09:47:08.422Z,39.88
2022-08-09T09:48:08.470Z,40.50
2022-08-09T09:49:14.339Z,40.68
2022-08-09T09:50:16.808Z,41.23
2022-08-09T09:51:11.551Z,40.47
2022-08-09T09:52:53.862Z,39.40
2022-08-09T09:54:00.889Z,39.98
2022-08-09T09:54:48.680Z,40.25
2022-08-09T09:55:43.853Z,40.86
2022-08-09T09:58:01.002Z,41.16
2022-08-09T09:58:03.254Z,41.66
2022-08-09T09:58:51.082Z,42.35
2022-08-09T09:59:44.022Z,42.76
2022-08-09T10:00:52.494Z,43.15
2022-08-09T10:01:45.051Z,42.46
2022-08-09T10:02:43.813Z,41.85
2022-08-09T10:03:44.690Z,42.66
2022-08-09T10:04:44.826Z,42.99
2022-08-09T10:06:00.849Z,41.55
2022-08-09T10:06:47.064Z,41.57
2022-08-09T10:08:10.880Z,41.90
2022-08-09T10:08:57.322Z,41.78
2022-08-09T10:09:48.462Z,42.08
2022-08-09T10:10:49.744Z,43.11
2022-08-09T10:12:00.527Z,43.52
2022-08-09T10:12:49.842Z,41.63
2022-08-09T10:13:45.710Z,41.62
2022-08-09T10:14:48.228Z,41.83
2022-08-09T10:16:58.119Z,42.81
2022-08-09T10:17:40.147Z,43.33
2022-08-09T10:18:19.411Z,42.89
2022-08-09T10:19:18.566Z,43.18
2022-08-09T10:20:27.409Z,42.99
2022-08-09T10:21:19.377Z,42.74
2022-08-09T10:22:29.334Z,42.78
2022-08-09T10:23:28.206Z,42.55
2022-08-09T10:24:25.606Z,41.28
2022-08-09T10:25:21.000Z,40.94
2022-08-09T10:26:19.422Z,41.36
2022-08-09T10:27:24.812Z,40.42
2022-08-09T10:28:19.330Z,41.35
2022-08-09T10:29:37.190Z,41.69
2022-08-09T10:32:53.248Z,43.18
2022-08-09T10:34:10.409Z,42.77
2022-08-09T10:34:53.974Z,43.24
2022-08-09T10:35:53.127Z,42.96
2022-08-09T10:36:58.918Z,41.25
2022-08-09T10:37:53.107Z,41.28
2022-08-09T10:38:56.415Z,41.54
2022-08-09T10:39:53.971Z,42.42
2022-08-09T10:40:53.026Z,41.45
2022-08-09T10:41:52.882Z,39.84
2022-08-09T10:42:53.379Z,39.69
2022-08-09T10:43:59.394Z,40.50
2022-08-09T10:44:54.102Z,40.73
2022-08-09T10:46:00.254Z,41.21
2022-08-09T10:46:57.715Z,40.26
2022-08-09T10:48:16.720Z,39.66
2022-08-09T10:49:51.346Z,39.40
2022-08-09T10:50:48.848Z,39.28
2022-08-09T10:51:48.629Z,39.20
2022-08-09T10:52:48.817Z,40.49
2022-08-09T10:53:54.755Z,41.49
2022-08-09T10:54:50.605Z,42.46
2022-08-09T10:55:58.174Z,42.78
2022-08-09T10:56:49.624Z,43.22
2022-08-09T10:57:55.885Z,42.87
2022-08-09T10:58:49.496Z,43.45
2022-08-09T10:59:57.718Z,44.14
2022-08-09T11:03:10.857Z,44.82
2022-08-09T11:03:15.934Z,44.72
2022-08-09T11:03:50.401Z,43.80
2022-08-09T11:04:30.260Z,42.12
2022-08-09T11:05:25.078Z,42.26
2022-08-09T11:06:30.912Z,42.65
2022-08-09T11:07:58.135Z,41.71
2022-08-09T11:08:54.900Z,41.57
2022-08-09T11:09:56.453Z,40.44
2022-08-09T11:10:56.369Z,40.91
2022-08-09T11:11:54.168Z,40.66
2022-08-09T11:12:53.960Z,40.04
2022-08-09T11:13:55.023Z,39.13
2022-08-09T11:14:53.951Z,39.02
2022-08-09T11:16:06.385Z,40.15
2022-08-09T11:16:55.938Z,41.26
2022-08-09T11:18:03.063Z,41.26
2022-08-09T11:18:56.436Z,40.78
2022-08-09T11:20:11.134Z,40.22
2022-08-09T11:20:55.156Z,39.98
2022-08-09T11:21:55.131Z,39.50
2022-08-09T11:24:23.721Z,40.73
2022-08-09T11:25:17.501Z,41.25
2022-08-09T11:26:54.633Z,41.01
2022-08-09T11:28:03.919Z,41.37
2022-08-09T11:28:56.136Z,40.37
2022-08-09T11:30:04.353Z,40.27
2022-08-09T11:30:54.141Z,40.26
2022-08-09T11:31:58.341Z,39.97
2022-08-09T11:32:52.125Z,39.03
2022-08-09T11:33:52.483Z,39.31
2022-08-09T11:35:50.241Z,39.17
2022-08-09T11:36:40.371Z,39.25
2022-08-09T11:37:40.851Z,39.15
2022-08-09T11:38:45.115Z,39.72
2022-08-09T11:39:39.169Z,39.91
2022-08-09T11:40:39.090Z,39.84
2022-08-09T11:41:40.520Z,39.58
2022-08-09T11:42:39.083Z,39.70
2022-08-09T11:43:39.479Z,39.40
2022-08-09T11:44:39.275Z,39.43
2022-08-09T11:45:42.702Z,39.06
2022-08-09T11:46:39.063Z,38.97
2022-08-09T11:47:45.082Z,38.84
2022-08-09T11:48:39.255Z,38.91
2022-08-09T11:53:01.070Z,36.34
2022-08-09T11:53:06.265Z,38.26
2022-08-09T11:54:11.295Z,37.75
2022-08-09T11:55:08.290Z,38.61
2022-08-09T11:56:08.287Z,38.63
2022-08-09T11:57:08.279Z,39.15
2022-08-09T11:58:08.276Z,39.06
2022-08-09T11:59:08.273Z,38.10
2022-08-09T12:00:39.018Z,38.60
2022-08-09T12:02:17.721Z,37.95
2022-08-09T12:02:40.880Z,38.57
2022-08-09T12:03:55.290Z,37.59
2022-08-09T12:04:41.292Z,37.27
2022-08-09T12:05:42.127Z,38.17
2022-08-09T12:06:40.970Z,38.40
2022-08-09T12:07:42.271Z,37.84
2022-08-09T12:08:38.958Z,38.08
2022-08-09T12:09:50.628Z,37.88
2022-08-09T12:10:42.246Z,38.35
2022-08-09T12:12:02.741Z,38.65
2022-08-09T12:12:45.984Z,39.00
2022-08-09T12:14:08.137Z,39.00
2022-08-09T12:14:58.940Z,40.22
2022-08-09T12:15:48.560Z,41.45
2022-08-09T12:16:40.922Z,41.64
2022-08-09T12:17:43.072Z,41.58
2022-08-09T12:18:40.904Z,41.57
2022-08-09T12:20:16.640Z,40.64
2022-08-09T12:21:28.452Z,39.94
2022-08-09T12:22:14.812Z,39.84
2022-08-09T12:23:15.778Z,40.57
2022-08-09T12:24:21.585Z,40.44
2022-08-09T12:25:14.874Z,40.44
2022-08-09T12:26:19.812Z,40.53
2022-08-09T12:29:13.384Z,41.45
2022-08-09T12:29:15.409Z,40.79
2022-08-09T12:29:29.501Z,40.87
2022-08-09T12:30:36.370Z,40.93
2022-08-09T12:31:58.313Z,40.53
2022-08-09T12:32:13.728Z,41.11
2022-08-09T12:33:13.527Z,41.28
2022-08-09T12:34:13.518Z,41.86
2022-08-09T12:35:21.642Z,41.48
2022-08-09T12:36:31.511Z,42.38
2022-08-09T12:37:51.727Z,41.98
2022-08-09T12:39:37.674Z,41.32
2022-08-09T12:40:36.325Z,41.89
2022-08-09T12:41:40.227Z,41.29
2022-08-09T12:42:42.134Z,41.93
2022-08-09T12:44:06.625Z,42.42
2022-08-09T12:44:39.801Z,41.44
2022-08-09T12:45:38.506Z,40.08
2022-08-09T12:47:50.287Z,39.17
2022-08-09T12:49:20.847Z,38.61
2022-08-09T12:50:13.708Z,39.05
2022-08-09T12:51:13.899Z,39.53
2022-08-09T12:52:20.742Z,40.42
2022-08-09T12:53:18.119Z,40.49
2022-08-09T12:54:15.680Z,40.81
2022-08-09T12:56:15.521Z,40.01
2022-08-09T12:56:34.892Z,39.59
2022-08-09T12:57:14.714Z,38.79
2022-08-09T12:58:27.476Z,38.57
2022-08-09T12:59:14.901Z,38.81
2022-08-09T13:00:13.859Z,39.06
2022-08-09T13:01:13.698Z,38.05
2022-08-09T13:02:16.058Z,38.30
2022-08-09T13:03:24.382Z,38.50
2022-08-09T13:04:36.608Z,38.38
2022-08-09T13:05:20.679Z,38.42
2022-08-09T13:06:19.622Z,38.83
2022-08-09T13:07:15.630Z,38.84
2022-08-09T13:08:13.620Z,38.93
2022-08-09T13:10:52.198Z,38.26
2022-08-09T13:11:51.081Z,37.40
2022-08-09T13:13:09.117Z,37.51